sensor_id;sensor_type;location;lat;lon;timestamp;pressure;altitude;pressure_sealevel;temperature;humidity
52927;BME280;40783;49.710;8.842;2022-10-04T00:03:01;99854.09;;;9.52;93.12
52927;BME280;40783;49.710;8.842;2022-10-04T00:05:29;99860.53;;;9.49;93.04
52927;BME280;40783;49.710;8.842;2022-10-04T00:07:58;99856.59;;;9.44;93.51
52927;BME280;40783;49.710;8.842;2022-10-04T00:10:31;99841.56;;;9.43;93.54
52927;BME280;40783;49.710;8.842;2022-10-04T00:12:59;99845.06;;;9.43;92.65
52927;BME280;40783;49.710;8.842;2022-10-04T00:15:33;99857.13;;;9.38;93.05
52927;BME280;40783;49.710;8.842;2022-10-04T00:25:51;99849.59;;;9.53;91.60
52927;BME280;40783;49.710;8.842;2022-10-04T00:41:43;99844.22;;;9.43;91.19
52927;BME280;40783;49.710;8.842;2022-10-04T00:50:09;99840.84;;;9.41;91.41
52927;BME280;40783;49.710;8.842;2022-10-04T00:52:46;99840.84;;;9.41;91.98
52927;BME280;40783;49.710;8.842;2022-10-04T00:55:39;99839.16;;;9.40;91.44
52927;BME280;40783;49.710;8.842;2022-10-04T00:58:20;99835.78;;;9.47;90.95
52927;BME280;40783;49.710;8.842;2022-10-04T01:00:48;99843.13;;;9.55;90.39
52927;BME280;40783;49.710;8.842;2022-10-04T01:03:18;99840.88;;;9.50;89.90
52927;BME280;40783;49.710;8.842;2022-10-04T01:05:51;99830.16;;;9.41;89.31
52927;BME280;40783;49.710;8.842;2022-10-04T01:08:44;99835.50;;;9.41;90.27
52927;BME280;40783;49.710;8.842;2022-10-04T01:11:18;99829.97;;;9.32;90.75
52927;BME280;40783;49.710;8.842;2022-10-04T01:13:49;99836.81;;;9.25;89.73
52927;BME280;40783;49.710;8.842;2022-10-04T01:16:24;99827.00;;;9.26;90.25
52927;BME280;40783;49.710;8.842;2022-10-04T01:18:50;99831.75;;;9.22;90.09
52927;BME280;40783;49.710;8.842;2022-10-04T01:23:51;99816.00;;;9.19;90.89
52927;BME280;40783;49.710;8.842;2022-10-04T01:28:52;99813.75;;;9.14;91.02
52927;BME280;40783;49.710;8.842;2022-10-04T01:31:17;99820.44;;;9.09;90.76
52927;BME280;40783;49.710;8.842;2022-10-04T01:33:43;99815.09;;;9.09;90.79
52927;BME280;40783;49.710;8.842;2022-10-04T01:36:10;99812.78;;;9.15;90.30
52927;BME280;40783;49.710;8.842;2022-10-04T01:38:38;99801.50;;;9.12;91.01
52927;BME280;40783;49.710;8.842;2022-10-04T01:41:05;99802.22;;;9.14;91.11
52927;BME280;40783;49.710;8.842;2022-10-04T01:43:35;99814.31;;;9.18;90.47
52927;BME280;40783;49.710;8.842;2022-10-04T01:46:11;99803.25;;;9.23;90.33
52927;BME280;40783;49.710;8.842;2022-10-04T01:48:40;99803.09;;;9.24;89.95
52927;BME280;40783;49.710;8.842;2022-10-04T01:51:25;99797.47;;;9.17;89.48
52927;BME280;40783;49.710;8.842;2022-10-04T01:54:06;99805.28;;;9.09;89.46
52927;BME280;40783;49.710;8.842;2022-10-04T01:56:41;99800.59;;;9.01;89.79
52927;BME280;40783;49.710;8.842;2022-10-04T01:59:14;99795.56;;;8.98;89.82
52927;BME280;40783;49.710;8.842;2022-10-04T02:01:44;99792.28;;;8.95;90.03
52927;BME280;40783;49.710;8.842;2022-10-04T02:04:22;99771.25;;;9.01;90.33
52927;BME280;40783;49.710;8.842;2022-10-04T02:06:54;99766.78;;;9.02;89.75
52927;BME280;40783;49.710;8.842;2022-10-04T02:09:27;99753.84;;;8.97;89.74
52927;BME280;40783;49.710;8.842;2022-10-04T02:11:56;99765.34;;;8.98;89.71
52927;BME280;40783;49.710;8.842;2022-10-04T02:14:30;99763.91;;;8.94;90.26
52927;BME280;40783;49.710;8.842;2022-10-04T02:16:59;99764.78;;;8.94;90.58
52927;BME280;40783;49.710;8.842;2022-10-04T02:19:32;99761.94;;;8.86;90.07
52927;BME280;40783;49.710;8.842;2022-10-04T02:22:01;99756.00;;;8.82;91.18
52927;BME280;40783;49.710;8.842;2022-10-04T02:24:28;99754.91;;;8.85;90.26
52927;BME280;40783;49.710;8.842;2022-10-04T02:26:59;99745.66;;;8.89;90.50
52927;BME280;40783;49.710;8.842;2022-10-04T02:29:25;99748.13;;;8.81;90.51
52927;BME280;40783;49.710;8.842;2022-10-04T02:31:51;99745.47;;;8.81;90.67
52927;BME280;40783;49.710;8.842;2022-10-04T02:34:39;99750.28;;;8.87;90.49
52927;BME280;40783;49.710;8.842;2022-10-04T02:37:08;99768.69;;;8.90;90.59
52927;BME280;40783;49.710;8.842;2022-10-04T02:39:41;99751.44;;;8.94;90.12
52927;BME280;40783;49.710;8.842;2022-10-04T02:42:19;99753.84;;;8.97;89.80
52927;BME280;40783;49.710;8.842;2022-10-04T02:44:50;99743.97;;;8.88;90.28
52927;BME280;40783;49.710;8.842;2022-10-04T02:47:24;99742.53;;;8.84;90.69
52927;BME280;40783;49.710;8.842;2022-10-04T02:49:58;99738.91;;;8.85;91.14
52927;BME280;40783;49.710;8.842;2022-10-04T02:52:36;99749.84;;;8.82;90.98
52927;BME280;40783;49.710;8.842;2022-10-04T02:55:08;99749.56;;;8.85;91.13
52927;BME280;40783;49.710;8.842;2022-10-04T02:57:41;99753.47;;;8.81;90.58
52927;BME280;40783;49.710;8.842;2022-10-04T03:03:08;99741.44;;;8.65;91.81
52927;BME280;40783;49.710;8.842;2022-10-04T03:05:37;99739.44;;;8.79;91.18
52927;BME280;40783;49.710;8.842;2022-10-04T03:08:06;99741.63;;;8.73;90.80
52927;BME280;40783;49.710;8.842;2022-10-04T03:10:31;99741.63;;;8.73;90.62
52927;BME280;40783;49.710;8.842;2022-10-04T03:13:00;99742.34;;;8.75;90.80
52927;BME280;40783;49.710;8.842;2022-10-04T03:15:28;99734.06;;;8.69;90.49
52927;BME280;40783;49.710;8.842;2022-10-04T03:17:54;99723.38;;;8.69;90.57
52927;BME280;40783;49.710;8.842;2022-10-04T03:20:19;99721.16;;;8.74;90.25
52927;BME280;40783;49.710;8.842;2022-10-04T03:22:50;99717.91;;;8.70;90.69
52927;BME280;40783;49.710;8.842;2022-10-04T03:25:22;99720.03;;;8.76;90.57
52927;BME280;40783;49.710;8.842;2022-10-04T03:27:50;99721.75;;;8.78;89.74
52927;BME280;40783;49.710;8.842;2022-10-04T03:30:18;99719.53;;;8.83;89.04
52927;BME280;40783;49.710;8.842;2022-10-04T03:32:47;99728.03;;;8.76;89.85
52927;BME280;40783;49.710;8.842;2022-10-04T03:37:49;99731.75;;;8.64;90.36
52927;BME280;40783;49.710;8.842;2022-10-04T03:40:26;99740.72;;;8.63;90.50
52927;BME280;40783;49.710;8.842;2022-10-04T03:42:53;99737.63;;;8.58;90.68
52927;BME280;40783;49.710;8.842;2022-10-04T03:45:22;99741.00;;;8.60;91.23
52927;BME280;40783;49.710;8.842;2022-10-04T03:47:49;99739.81;;;8.53;91.59
52927;BME280;40783;49.710;8.842;2022-10-04T03:50:23;99739.44;;;8.57;91.28
52927;BME280;40783;49.710;8.842;2022-10-04T03:53:05;99733.44;;;8.65;91.44
52927;BME280;40783;49.710;8.842;2022-10-04T03:55:34;99735.94;;;8.57;91.41
52927;BME280;40783;49.710;8.842;2022-10-04T03:58:00;99733.38;;;8.34;92.82
52927;BME280;40783;49.710;8.842;2022-10-04T04:00:26;99748.44;;;8.45;91.69
52927;BME280;40783;49.710;8.842;2022-10-04T04:02:58;99744.59;;;8.49;91.86
52927;BME280;40783;49.710;8.842;2022-10-04T04:05:26;99741.16;;;8.47;92.19
52927;BME280;40783;49.710;8.842;2022-10-04T04:08:11;99738.38;;;8.49;92.36
52927;BME280;40783;49.710;8.842;2022-10-04T04:10:41;99740.09;;;8.50;91.33
52927;BME280;40783;49.710;8.842;2022-10-04T04:15:36;99732.03;;;8.61;90.97
52927;BME280;40783;49.710;8.842;2022-10-04T04:18:14;99737.63;;;8.58;90.78
52927;BME280;40783;49.710;8.842;2022-10-04T04:20:42;99737.34;;;8.61;90.39
52927;BME280;40783;49.710;8.842;2022-10-04T04:25:43;99724.53;;;8.55;90.85
52927;BME280;40783;49.710;8.842;2022-10-04T04:30:46;99720.72;;;8.48;91.27
52927;BME280;40783;49.710;8.842;2022-10-04T04:33:24;99716.69;;;8.53;90.93
52927;BME280;40783;49.710;8.842;2022-10-04T04:35:57;99704.72;;;8.48;91.79
52927;BME280;40783;49.710;8.842;2022-10-04T04:38:27;99707.97;;;8.51;92.06
52927;BME280;40783;49.710;8.842;2022-10-04T04:40:56;99703.28;;;8.43;92.34
52927;BME280;40783;49.710;8.842;2022-10-04T04:43:25;99703.63;;;8.50;91.77
52927;BME280;40783;49.710;8.842;2022-10-04T04:45:54;99705.81;;;8.45;91.56
52927;BME280;40783;49.710;8.842;2022-10-04T04:48:22;99707.28;;;8.49;91.76
52927;BME280;40783;49.710;8.842;2022-10-04T04:50:51;99707.00;;;8.52;91.73
52927;BME280;40783;49.710;8.842;2022-10-04T04:55:53;99713.50;;;8.59;91.11
52927;BME280;40783;49.710;8.842;2022-10-04T04:58:25;99719.94;;;8.57;90.95
52927;BME280;40783;49.710;8.842;2022-10-04T05:00:57;99713.34;;;8.61;90.75
52927;BME280;40783;49.710;8.842;2022-10-04T05:03:26;99707.91;;;8.63;90.79
52927;BME280;40783;49.710;8.842;2022-10-04T05:05:55;99702.13;;;8.57;91.62
52927;BME280;40783;49.710;8.842;2022-10-04T05:08:27;99701.00;;;8.60;91.58
52927;BME280;40783;49.710;8.842;2022-10-04T05:13:44;99706.59;;;8.57;91.20
52927;BME280;40783;49.710;8.842;2022-10-04T05:16:28;99710.94;;;8.58;91.73
52927;BME280;40783;49.710;8.842;2022-10-04T05:18:59;99707.06;;;8.62;91.90
52927;BME280;40783;49.710;8.842;2022-10-04T05:21:27;99711.16;;;8.66;91.90
52927;BME280;40783;49.710;8.842;2022-10-04T05:24:05;99718.56;;;8.63;92.31
52927;BME280;40783;49.710;8.842;2022-10-04T05:26:33;99716.53;;;8.55;93.14
52927;BME280;40783;49.710;8.842;2022-10-04T05:29:17;99726.69;;;8.61;92.99
52927;BME280;40783;49.710;8.842;2022-10-04T05:31:50;99712.06;;;8.55;93.48
52927;BME280;40783;49.710;8.842;2022-10-04T05:34:24;99719.94;;;8.57;93.45
52927;BME280;40783;49.710;8.842;2022-10-04T05:39:40;99715.13;;;8.51;92.47
52927;BME280;40783;49.710;8.842;2022-10-04T05:42:43;99712.19;;;8.54;93.34
52927;BME280;40783;49.710;8.842;2022-10-04T05:45:25;99717.59;;;8.64;93.29
52927;BME280;40783;49.710;8.842;2022-10-04T05:47:53;99725.88;;;8.60;92.52
52927;BME280;40783;49.710;8.842;2022-10-04T05:50:32;99726.44;;;8.64;93.33
52927;BME280;40783;49.710;8.842;2022-10-04T05:53:30;99729.81;;;8.66;92.98
52927;BME280;40783;49.710;8.842;2022-10-04T06:01:45;99727.44;;;8.09;98.67
52927;BME280;40783;49.710;8.842;2022-10-04T06:04:22;99725.13;;;8.37;96.73
52927;BME280;40783;49.710;8.842;2022-10-04T06:06:58;99720.19;;;8.54;95.85
52927;BME280;40783;49.710;8.842;2022-10-04T06:09:45;99721.81;;;8.66;95.46
52927;BME280;40783;49.710;8.842;2022-10-04T06:12:44;99716.63;;;8.65;93.76
52927;BME280;40783;49.710;8.842;2022-10-04T06:20:57;99728.50;;;8.82;95.54
52927;BME280;40783;49.710;8.842;2022-10-04T06:23:29;99723.72;;;8.85;94.92
52927;BME280;40783;49.710;8.842;2022-10-04T06:26:04;99719.44;;;8.94;95.48
52927;BME280;40783;49.710;8.842;2022-10-04T06:28:35;99721.84;;;8.97;94.97
52927;BME280;40783;49.710;8.842;2022-10-04T06:52:57;99734.00;;;9.21;95.89
52927;BME280;40783;49.710;8.842;2022-10-04T07:01:16;99736.28;;;9.35;100.00
52927;BME280;40783;49.710;8.842;2022-10-04T07:06:50;99727.88;;;9.40;100.00
52927;BME280;40783;49.710;8.842;2022-10-04T07:09:39;99721.41;;;9.43;99.95
52927;BME280;40783;49.710;8.842;2022-10-04T07:12:07;99725.38;;;9.58;100.00
52927;BME280;40783;49.710;8.842;2022-10-04T07:14:44;99731.28;;;9.62;100.00
52927;BME280;40783;49.710;8.842;2022-10-04T07:17:19;99731.56;;;9.69;100.00
52927;BME280;40783;49.710;8.842;2022-10-04T07:19:51;99734.94;;;9.71;100.00
52927;BME280;40783;49.710;8.842;2022-10-04T07:27:19;99742.03;;;9.91;100.00
52927;BME280;40783;49.710;8.842;2022-10-04T07:29:54;99745.13;;;9.97;100.00
52927;BME280;40783;49.710;8.842;2022-10-04T07:32:23;99743.72;;;9.92;100.00
52927;BME280;40783;49.710;8.842;2022-10-04T07:35:16;99750.19;;;10.00;100.00
52927;BME280;40783;49.710;8.842;2022-10-04T07:37:49;99749.31;;;9.79;100.00
52927;BME280;40783;49.710;8.842;2022-10-04T07:43:27;99740.31;;;10.10;100.00
52927;BME280;40783;49.710;8.842;2022-10-04T07:46:43;99737.22;;;10.24;100.00
52927;BME280;40783;49.710;8.842;2022-10-04T07:48:57;99730.63;;;10.48;100.00
52927;BME280;40783;49.710;8.842;2022-10-04T07:54:36;99715.47;;;10.87;100.00
52927;BME280;40783;49.710;8.842;2022-10-04T08:00:09;99710.34;;;11.03;100.00
52927;BME280;40783;49.710;8.842;2022-10-04T08:03:28;99716.47;;;11.13;100.00
52927;BME280;40783;49.710;8.842;2022-10-04T08:11:57;99709.91;;;11.36;100.00
52927;BME280;40783;49.710;8.842;2022-10-04T08:22:32;99703.28;;;11.58;100.00
52927;BME280;40783;49.710;8.842;2022-10-04T08:30:11;99711.91;;;11.52;100.00
52927;BME280;40783;49.710;8.842;2022-10-04T08:35:28;99717.81;;;11.73;100.00
52927;BME280;40783;49.710;8.842;2022-10-04T09:19:18;99728.22;;;13.02;100.00
52927;BME280;40783;49.710;8.842;2022-10-04T09:27:15;99721.88;;;13.11;100.00
52927;BME280;40783;49.710;8.842;2022-10-04T09:30:13;99713.16;;;13.09;100.00
52927;BME280;40783;49.710;8.842;2022-10-04T09:32:52;99716.84;;;13.08;100.00
52927;BME280;40783;49.710;8.842;2022-10-04T09:38:48;99707.09;;;13.07;100.00
52927;BME280;40783;49.710;8.842;2022-10-04T09:47:41;99702.41;;;13.09;100.00
52927;BME280;40783;49.710;8.842;2022-10-04T10:20:51;99707.72;;;14.12;94.03
52927;BME280;40783;49.710;8.842;2022-10-04T10:31:01;99701.94;;;14.64;95.32
52927;BME280;40783;49.710;8.842;2022-10-04T10:36:37;99700.81;;;14.50;99.93
52927;BME280;40783;49.710;8.842;2022-10-04T10:55:32;99690.72;;;15.17;90.62
52927;BME280;40783;49.710;8.842;2022-10-04T11:04:01;99681.91;;;15.32;90.55
52927;BME280;40783;49.710;8.842;2022-10-04T11:12:17;99680.09;;;15.47;87.87
52927;BME280;40783;49.710;8.842;2022-10-04T11:37:06;99677.56;;;15.22;90.61
52927;BME280;40783;49.710;8.842;2022-10-04T11:44:59;99673.84;;;15.23;89.24
52927;BME280;40783;49.710;8.842;2022-10-04T11:47:58;99673.50;;;15.26;91.00
52927;BME280;40783;49.710;8.842;2022-10-04T11:57:09;99665.72;;;15.32;89.30
52927;BME280;40783;49.710;8.842;2022-10-04T11:59:44;99671.13;;;15.32;87.17
52927;BME280;40783;49.710;8.842;2022-10-04T12:02:28;99671.81;;;15.25;86.50
52927;BME280;40783;49.710;8.842;2022-10-04T12:05:22;99672.13;;;15.31;88.28
52927;BME280;40783;49.710;8.842;2022-10-04T12:25:31;99645.97;;;15.63;88.69
52927;BME280;40783;49.710;8.842;2022-10-04T12:37:15;99628.50;;;15.58;86.52
52927;BME280;40783;49.710;8.842;2022-10-04T12:59:05;99603.38;;;15.81;82.35
52927;BME280;40783;49.710;8.842;2022-10-04T13:01:45;99601.88;;;16.02;82.78
52927;BME280;40783;49.710;8.842;2022-10-04T13:09:19;99597.22;;;15.96;85.70
52927;BME280;40783;49.710;8.842;2022-10-04T13:12:21;99595.88;;;15.92;83.13
52927;BME280;40783;49.710;8.842;2022-10-04T13:21:04;99600.47;;;15.91;81.03
52927;BME280;40783;49.710;8.842;2022-10-04T13:26:11;99604.78;;;16.15;85.02
52927;BME280;40783;49.710;8.842;2022-10-04T13:47:37;99588.06;;;16.35;80.22
52927;BME280;40783;49.710;8.842;2022-10-04T13:56:49;99588.88;;;16.21;83.78
52927;BME280;40783;49.710;8.842;2022-10-04T13:59:30;99589.16;;;16.11;81.93
52927;BME280;40783;49.710;8.842;2022-10-04T14:07:49;99589.63;;;16.14;81.81
52927;BME280;40783;49.710;8.842;2022-10-04T14:30:16;99553.34;;;16.32;81.58
52927;BME280;40783;49.710;8.842;2022-10-04T14:52:29;99550.00;;;16.30;80.71
52927;BME280;40783;49.710;8.842;2022-10-04T15:03:43;99555.13;;;16.25;82.62
52927;BME280;40783;49.710;8.842;2022-10-04T15:09:20;99553.06;;;16.12;82.77
52927;BME280;40783;49.710;8.842;2022-10-04T15:12:01;99550.00;;;16.15;81.65
52927;BME280;40783;49.710;8.842;2022-10-04T15:20:45;99534.84;;;16.14;80.86
52927;BME280;40783;49.710;8.842;2022-10-04T15:26:11;99532.47;;;15.96;83.15
52927;BME280;40783;49.710;8.842;2022-10-04T15:29:04;99526.88;;;15.82;86.20
52927;BME280;40783;49.710;8.842;2022-10-04T15:31:40;99534.47;;;15.79;80.80
52927;BME280;40783;49.710;8.842;2022-10-04T15:34:34;99527.22;;;15.79;81.97
52927;BME280;40783;49.710;8.842;2022-10-04T15:37:17;99526.94;;;15.74;81.44
52927;BME280;40783;49.710;8.842;2022-10-04T15:45:56;99537.06;;;15.72;80.08
52927;BME280;40783;49.710;8.842;2022-10-04T15:51:06;99529.41;;;15.61;82.60
52927;BME280;40783;49.710;8.842;2022-10-04T16:13:20;99520.13;;;15.17;86.68
52927;BME280;40783;49.710;8.842;2022-10-04T16:21:30;99506.91;;;15.07;86.51
52927;BME280;40783;49.710;8.842;2022-10-04T16:31:59;99511.38;;;14.91;85.56
52927;BME280;40783;49.710;8.842;2022-10-04T16:34:57;99508.09;;;14.81;86.29
52927;BME280;40783;49.710;8.842;2022-10-04T16:37:32;99515.00;;;14.75;86.86
52927;BME280;40783;49.710;8.842;2022-10-04T16:50:01;99492.88;;;14.17;100.00
52927;BME280;40783;49.710;8.842;2022-10-04T17:35:16;99550.44;;;13.41;100.00
52927;BME280;40783;49.710;8.842;2022-10-04T17:38:06;99548.72;;;13.40;100.00
52927;BME280;40783;49.710;8.842;2022-10-04T17:46:47;99554.75;;;13.34;100.00
52927;BME280;40783;49.710;8.842;2022-10-04T17:52:17;99554.91;;;13.24;100.00
52927;BME280;40783;49.710;8.842;2022-10-04T17:55:42;99553.41;;;13.13;100.00
52927;BME280;40783;49.710;8.842;2022-10-04T17:58:19;99553.56;;;13.20;100.00
52927;BME280;40783;49.710;8.842;2022-10-04T18:01:08;99570.84;;;13.17;100.00
52927;BME280;40783;49.710;8.842;2022-10-04T18:03:42;99572.34;;;13.12;100.00
52927;BME280;40783;49.710;8.842;2022-10-04T18:06:16;99565.63;;;13.07;100.00
52927;BME280;40783;49.710;8.842;2022-10-04T18:09:29;99559.41;;;13.07;100.00
52927;BME280;40783;49.710;8.842;2022-10-04T18:20:14;99571.41;;;12.78;100.00
52927;BME280;40783;49.710;8.842;2022-10-04T18:22:50;99573.44;;;12.84;100.00
52927;BME280;40783;49.710;8.842;2022-10-04T18:25:23;99573.09;;;12.79;100.00
52927;BME280;40783;49.710;8.842;2022-10-04T18:27:59;99573.41;;;12.76;100.00
52927;BME280;40783;49.710;8.842;2022-10-04T18:30:32;99571.72;;;12.67;100.00
52927;BME280;40783;49.710;8.842;2022-10-04T18:32:58;99565.66;;;12.65;100.00
52927;BME280;40783;49.710;8.842;2022-10-04T18:35:28;99573.34;;;12.59;100.00
52927;BME280;40783;49.710;8.842;2022-10-04T18:40:33;99577.69;;;12.52;100.00
52927;BME280;40783;49.710;8.842;2022-10-04T18:42:59;99568.81;;;12.60;100.00
52927;BME280;40783;49.710;8.842;2022-10-04T18:45:30;99563.78;;;12.57;100.00
52927;BME280;40783;49.710;8.842;2022-10-04T18:47:59;99570.31;;;12.54;100.00
52927;BME280;40783;49.710;8.842;2022-10-04T18:50:31;99577.16;;;12.49;100.00
52927;BME280;40783;49.710;8.842;2022-10-04T18:53:10;99571.28;;;12.45;100.00
52927;BME280;40783;49.710;8.842;2022-10-04T18:55:58;99574.97;;;12.44;100.00
52927;BME280;40783;49.710;8.842;2022-10-04T18:58:36;99573.91;;;12.37;100.00
52927;BME280;40783;49.710;8.842;2022-10-04T19:01:52;99565.50;;;12.31;100.00
52927;BME280;40783;49.710;8.842;2022-10-04T19:07:14;99568.66;;;12.27;100.00
52927;BME280;40783;49.710;8.842;2022-10-04T19:09:58;99568.97;;;12.24;100.00
52927;BME280;40783;49.710;8.842;2022-10-04T19:12:43;99571.81;;;12.22;100.00
52927;BME280;40783;49.710;8.842;2022-10-04T19:15:25;99572.97;;;12.20;100.00
52927;BME280;40783;49.710;8.842;2022-10-04T19:18:15;99579.16;;;12.20;100.00
52927;BME280;40783;49.710;8.842;2022-10-04T19:20:50;99565.44;;;12.15;100.00
52927;BME280;40783;49.710;8.842;2022-10-04T19:23:27;99584.59;;;12.28;100.00
52927;BME280;40783;49.710;8.842;2022-10-04T19:26:24;99587.28;;;12.28;100.00
52927;BME280;40783;49.710;8.842;2022-10-04T19:32:06;99593.38;;;12.12;100.00
52927;BME280;40783;49.710;8.842;2022-10-04T19:34:52;99598.69;;;12.04;100.00
52927;BME280;40783;49.710;8.842;2022-10-04T19:37:36;99599.66;;;12.03;100.00
52927;BME280;40783;49.710;8.842;2022-10-04T19:42:53;99610.16;;;11.96;100.00
52927;BME280;40783;49.710;8.842;2022-10-04T19:45:46;99609.78;;;11.91;100.00
52927;BME280;40783;49.710;8.842;2022-10-04T19:48:21;99609.88;;;11.99;100.00
52927;BME280;40783;49.710;8.842;2022-10-04T19:50:56;99615.53;;;11.96;100.00
52927;BME280;40783;49.710;8.842;2022-10-04T19:53:38;99615.84;;;11.93;100.00
52927;BME280;40783;49.710;8.842;2022-10-04T19:56:15;99623.97;;;12.01;100.00
52927;BME280;40783;49.710;8.842;2022-10-04T20:01:17;99619.06;;;12.15;100.00
52927;BME280;40783;49.710;8.842;2022-10-04T20:03:45;99619.34;;;12.12;100.00
52927;BME280;40783;49.710;8.842;2022-10-04T20:06:20;99619.03;;;11.97;100.00
52927;BME280;40783;49.710;8.842;2022-10-04T20:11:25;99621.66;;;11.88;100.00
52927;BME280;40783;49.710;8.842;2022-10-04T20:21:47;99623.59;;;11.78;100.00
52927;BME280;40783;49.710;8.842;2022-10-04T20:24:17;99619.97;;;11.69;100.00
52927;BME280;40783;49.710;8.842;2022-10-04T20:26:45;99618.75;;;11.64;100.00
52927;BME280;40783;49.710;8.842;2022-10-04T20:32:00;99619.53;;;11.56;100.00
52927;BME280;40783;49.710;8.842;2022-10-04T20:37:07;99612.25;;;11.48;100.00
52927;BME280;40783;49.710;8.842;2022-10-04T20:42:09;99617.91;;;11.81;100.00
52927;BME280;40783;49.710;8.842;2022-10-04T20:45:20;99618.75;;;11.82;100.00
52927;BME280;40783;49.710;8.842;2022-10-04T20:47:46;99623.91;;;11.75;100.00
52927;BME280;40783;49.710;8.842;2022-10-04T20:50:25;99625.19;;;11.71;100.00
52927;BME280;40783;49.710;8.842;2022-10-04T20:52:54;99622.72;;;11.78;100.00
52927;BME280;40783;49.710;8.842;2022-10-04T20:55:30;99625.03;;;11.72;99.85
52927;BME280;40783;49.710;8.842;2022-10-04T20:58:16;99625.22;;;11.53;100.00
52927;BME280;40783;49.710;8.842;2022-10-04T21:00:53;99628.56;;;11.55;100.00
52927;BME280;40783;49.710;8.842;2022-10-04T21:03:20;99629.25;;;11.57;100.00
52927;BME280;40783;49.710;8.842;2022-10-04T21:06:04;99630.09;;;11.39;100.00
52927;BME280;40783;49.710;8.842;2022-10-04T21:08:31;99637.50;;;11.27;100.00
52927;BME280;40783;49.710;8.842;2022-10-04T21:13:59;99632.97;;;11.28;100.00
52927;BME280;40783;49.710;8.842;2022-10-04T21:21:56;99621.44;;;11.27;100.00
52927;BME280;40783;49.710;8.842;2022-10-04T21:26:57;99619.81;;;11.17;100.00
52927;BME280;40783;49.710;8.842;2022-10-04T21:29:23;99629.38;;;11.19;100.00
52927;BME280;40783;49.710;8.842;2022-10-04T21:31:48;99609.72;;;11.10;100.00
52927;BME280;40783;49.710;8.842;2022-10-04T21:34:13;99613.63;;;11.16;99.95
52927;BME280;40783;49.710;8.842;2022-10-04T21:36:38;99606.56;;;11.15;100.00
52927;BME280;40783;49.710;8.842;2022-10-04T21:39:04;99610.53;;;11.11;100.00
52927;BME280;40783;49.710;8.842;2022-10-04T21:41:29;99609.34;;;11.23;100.00
52927;BME280;40783;49.710;8.842;2022-10-04T21:43:56;99608.28;;;11.34;99.88
52927;BME280;40783;49.710;8.842;2022-10-04T21:46:22;99600.84;;;11.28;98.09
52927;BME280;40783;49.710;8.842;2022-10-04T21:48:49;99591.72;;;11.21;99.17
52927;BME280;40783;49.710;8.842;2022-10-04T21:51:14;99591.69;;;11.12;98.96
52927;BME280;40783;49.710;8.842;2022-10-04T21:53:40;99595.00;;;11.14;97.32
52927;BME280;40783;49.710;8.842;2022-10-04T21:56:05;99591.34;;;11.16;98.43
52927;BME280;40783;49.710;8.842;2022-10-04T21:58:32;99596.41;;;11.19;98.22
52927;BME280;40783;49.710;8.842;2022-10-04T22:00:57;99598.69;;;11.13;97.04
52927;BME280;40783;49.710;8.842;2022-10-04T22:03:22;99597.34;;;11.09;98.18
52927;BME280;40783;49.710;8.842;2022-10-04T22:05:48;99593.06;;;10.89;98.55
52927;BME280;40783;49.710;8.842;2022-10-04T22:08:13;99588.81;;;10.96;97.71
52927;BME280;40783;49.710;8.842;2022-10-04T22:10:38;99595.75;;;10.89;99.38
52927;BME280;40783;49.710;8.842;2022-10-04T22:13:04;99591.69;;;10.84;99.43
52927;BME280;40783;49.710;8.842;2022-10-04T22:15:29;99596.94;;;10.76;99.76
52927;BME280;40783;49.710;8.842;2022-10-04T22:17:55;99592.09;;;10.90;98.30
52927;BME280;40783;49.710;8.842;2022-10-04T22:20:21;99581.97;;;10.83;99.06
52927;BME280;40783;49.710;8.842;2022-10-04T22:22:51;99581.09;;;10.93;99.04
52927;BME280;40783;49.710;8.842;2022-10-04T22:25:21;99589.25;;;10.91;97.73
52927;BME280;40783;49.710;8.842;2022-10-04T22:27:50;99584.41;;;10.77;98.45
52927;BME280;40783;49.710;8.842;2022-10-04T22:30:27;99583.03;;;10.73;99.55
52927;BME280;40783;49.710;8.842;2022-10-04T22:32:54;99589.91;;;10.75;98.79
52927;BME280;40783;49.710;8.842;2022-10-04T22:35:23;99582.88;;;10.74;98.94
52927;BME280;40783;49.710;8.842;2022-10-04T22:37:51;99580.09;;;10.66;99.49
52927;BME280;40783;49.710;8.842;2022-10-04T22:40:23;99570.47;;;10.73;98.76
52927;BME280;40783;49.710;8.842;2022-10-04T22:42:54;99566.28;;;10.71;99.08
52927;BME280;40783;49.710;8.842;2022-10-04T22:45:26;99562.03;;;10.78;99.04
52927;BME280;40783;49.710;8.842;2022-10-04T22:47:55;99560.88;;;10.80;98.55
52927;BME280;40783;49.710;8.842;2022-10-04T22:52:55;99558.38;;;10.69;98.79
52927;BME280;40783;49.710;8.842;2022-10-04T22:55:20;99558.06;;;10.82;98.59
52927;BME280;40783;49.710;8.842;2022-10-04T22:57:45;99566.63;;;10.86;98.47
52927;BME280;40783;49.710;8.842;2022-10-04T23:00:13;99562.56;;;10.81;98.61
52927;BME280;40783;49.710;8.842;2022-10-04T23:02:39;99566.53;;;10.77;98.67
52927;BME280;40783;49.710;8.842;2022-10-04T23:05:22;99556.81;;;10.76;99.31
52927;BME280;40783;49.710;8.842;2022-10-04T23:07:50;99559.25;;;10.69;99.22
52927;BME280;40783;49.710;8.842;2022-10-04T23:10:17;99555.03;;;10.67;100.00
52927;BME280;40783;49.710;8.842;2022-10-04T23:12:45;99559.78;;;10.73;99.35
52927;BME280;40783;49.710;8.842;2022-10-04T23:15:15;99554.00;;;10.78;99.69
52927;BME280;40783;49.710;8.842;2022-10-04T23:17:44;99550.38;;;10.69;100.00
52927;BME280;40783;49.710;8.842;2022-10-04T23:20:17;99551.22;;;10.69;100.00
52927;BME280;40783;49.710;8.842;2022-10-04T23:22:47;99557.28;;;10.72;99.83
52927;BME280;40783;49.710;8.842;2022-10-04T23:25:18;99551.94;;;10.62;100.00
52927;BME280;40783;49.710;8.842;2022-10-04T23:27:44;99555.63;;;10.61;100.00
52927;BME280;40783;49.710;8.842;2022-10-04T23:30:15;99553.41;;;10.56;100.00
52927;BME280;40783;49.710;8.842;2022-10-04T23:32:46;99548.41;;;10.43;100.00
52927;BME280;40783;49.710;8.842;2022-10-04T23:35:25;99538.81;;;10.50;100.00
52927;BME280;40783;49.710;8.842;2022-10-04T23:37:54;99547.81;;;10.49;100.00
52927;BME280;40783;49.710;8.842;2022-10-04T23:40:21;99545.53;;;10.54;100.00